createdAt,value
2023-09-09T21:54:54.926Z,6.55
2023-09-09T21:57:25.376Z,6.82
2023-09-09T21:59:57.191Z,6.65
2023-09-09T22:02:27.832Z,6.18
2023-09-09T22:04:58.752Z,6.45
2023-09-09T22:07:29.314Z,6.20
2023-09-09T22:12:34.134Z,6.63
2023-09-09T22:15:05.297Z,6.32
2023-09-09T22:17:37.651Z,5.88
2023-09-09T22:20:13.432Z,6.07
2023-09-09T22:22:44.374Z,6.90
2023-09-09T22:25:18.621Z,6.78
2023-09-09T22:27:49.065Z,8.95
2023-09-09T22:32:49.960Z,8.15
2023-09-09T22:35:28.224Z,8.80
2023-09-09T22:38:00.492Z,8.48
2023-09-09T22:40:34.467Z,8.02
2023-09-09T22:43:04.961Z,8.02
2023-09-09T22:45:35.581Z,8.90
2023-09-09T22:48:06.650Z,8.45
2023-09-09T22:50:37.742Z,8.77
2023-09-09T22:53:08.394Z,8.10
2023-09-09T22:55:41.645Z,7.88
2023-09-09T22:58:12.987Z,7.78
2023-09-09T23:00:43.506Z,7.80
2023-09-09T23:05:44.464Z,7.05
2023-09-09T23:08:15.090Z,7.45
2023-09-09T23:10:48.276Z,7.00
2023-09-09T23:13:18.781Z,7.43
2023-09-09T23:18:20.269Z,7.32
2023-09-09T23:23:21.166Z,7.00
2023-09-09T23:25:59.974Z,7.47
2023-09-09T23:28:30.775Z,7.13
2023-09-09T23:31:02.451Z,7.28
2023-09-09T23:33:35.252Z,6.97
2023-09-09T23:36:06.948Z,7.00
2023-09-09T23:38:37.847Z,6.78
2023-09-09T23:41:12.294Z,6.97
2023-09-09T23:43:42.953Z,7.05
2023-09-09T23:46:14.098Z,6.57
2023-09-09T23:48:44.614Z,6.93
2023-09-09T23:53:45.541Z,6.50
2023-09-09T23:58:49.673Z,6.50
